Aérodrome :
LOGIN :

S'inscrire | Disclaimer

   EN    FR    IT 

 










Légende :    VFR   VFR Marginal   IFR   IFR Intensif   IFR Très Intensif
Visi : 
Plafond : 
>= 8 km
>= 3000ft
5 à 8 km
1000 à 3000 ft
1500m à 5 km
500 à 1000 ft
800 à 1500m
200 à 500 ft
< 800m
< 200 ft
Symboles :   Orages  Brouillard  Fortes neiges  Fortes précipitations  Vent > 20 kt
SIGMETs :   Divers  Orages  Givrage  Turbulence  Onde Orograph.  Cendres Volcan.






- Altitude de l'aérodrome : 446 ft
- Code IATA : VNE


LFRV - Vannes-Meucon

DERNIER METAR :
  • 141400Z AUTO VRB04KT 9999 BKN032 19/12 Q1023

METARs EXPIRÉS :
  • 141330Z AUTO VRB03KT 9999 OVC032 19/11 Q1023
  • 141300Z AUTO 00000KT 9999 BKN030 19/11 Q1023
  • 141230Z AUTO 05004KT 350V080 9999 FEW029 17/11 Q1024
  • 141200Z AUTO VRB02KT CAVOK 18/11 Q1024
  • 141130Z AUTO VRB03KT CAVOK 17/11 Q1025
  • 141100Z AUTO VRB02KT CAVOK 16/11 Q1025
  • 141030Z AUTO 06004KT 350V140 CAVOK 15/10 Q1025
  • 141000Z AUTO 06004KT 010V120 CAVOK 14/10 Q1025
  • 140930Z AUTO 03005KT 350V070 9999 FEW015 14/10 Q1025

TAF N/A



MET'MAP, la Météo Aéronautique d'un coup d'oeil ! - Copyright ORBIFLY Décembre 2007 - Disclaimer

ORBIFLY MET'MAP TEAM :

Programmation & Développement : Alexandra Zaïnal
Sur une idée originale de : Baudouin d'Aumeries
Soutien technique & logistique : Manuel Goepfert
Assistance : Marc-Olivier Méhu




SOURCES & CREDITS :

   NOAA